sensor_id;sensor_type;location;lat;lon;timestamp;P1;durP1;ratioP1;P2;durP2;ratioP2
68365;SDS011;55283;51.466;5.478;2023-02-15T00:01:07;38.58;;;30.08;;
68365;SDS011;55283;51.466;5.478;2023-02-15T00:03:34;37.65;;;29.40;;
68365;SDS011;55283;51.466;5.478;2023-02-15T00:05:59;37.93;;;29.43;;
68365;SDS011;55283;51.466;5.478;2023-02-15T00:08:25;37.87;;;28.67;;
68365;SDS011;55283;51.466;5.478;2023-02-15T00:10:50;36.37;;;29.00;;
68365;SDS011;55283;51.466;5.478;2023-02-15T00:13:16;38.83;;;29.33;;
68365;SDS011;55283;51.466;5.478;2023-02-15T00:15:41;38.15;;;29.17;;
68365;SDS011;55283;51.466;5.478;2023-02-15T00:18:06;37.13;;;29.50;;
68365;SDS011;55283;51.466;5.478;2023-02-15T00:20:32;39.17;;;29.53;;
68365;SDS011;55283;51.466;5.478;2023-02-15T00:22:58;38.17;;;28.83;;
68365;SDS011;55283;51.466;5.478;2023-02-15T00:25:24;36.20;;;28.20;;
68365;SDS011;55283;51.466;5.478;2023-02-15T00:27:49;34.90;;;27.10;;
68365;SDS011;55283;51.466;5.478;2023-02-15T00:30:14;35.20;;;27.97;;
68365;SDS011;55283;51.466;5.478;2023-02-15T00:32:40;34.35;;;26.52;;
68365;SDS011;55283;51.466;5.478;2023-02-15T00:35:05;34.60;;;27.23;;
68365;SDS011;55283;51.466;5.478;2023-02-15T00:37:31;34.95;;;27.17;;
68365;SDS011;55283;51.466;5.478;2023-02-15T00:39:57;33.53;;;26.97;;
68365;SDS011;55283;51.466;5.478;2023-02-15T00:42:22;33.43;;;27.07;;
68365;SDS011;55283;51.466;5.478;2023-02-15T00:44:48;33.35;;;25.98;;
68365;SDS011;55283;51.466;5.478;2023-02-15T00:47:13;33.47;;;26.73;;
68365;SDS011;55283;51.466;5.478;2023-02-15T00:49:39;32.93;;;26.40;;
68365;SDS011;55283;51.466;5.478;2023-02-15T00:52:04;32.57;;;26.23;;
68365;SDS011;55283;51.466;5.478;2023-02-15T00:54:30;33.30;;;26.27;;
68365;SDS011;55283;51.466;5.478;2023-02-15T00:56:55;32.10;;;25.13;;
68365;SDS011;55283;51.466;5.478;2023-02-15T00:59:20;33.07;;;25.80;;
68365;SDS011;55283;51.466;5.478;2023-02-15T01:01:46;33.80;;;25.67;;
68365;SDS011;55283;51.466;5.478;2023-02-15T01:04:11;30.57;;;25.13;;
68365;SDS011;55283;51.466;5.478;2023-02-15T01:06:37;31.92;;;25.05;;
68365;SDS011;55283;51.466;5.478;2023-02-15T01:09:02;30.03;;;25.43;;
68365;SDS011;55283;51.466;5.478;2023-02-15T01:11:28;29.93;;;24.03;;
68365;SDS011;55283;51.466;5.478;2023-02-15T01:13:54;31.33;;;25.50;;
68365;SDS011;55283;51.466;5.478;2023-02-15T01:16:21;31.53;;;25.43;;
68365;SDS011;55283;51.466;5.478;2023-02-15T01:18:48;35.28;;;25.45;;
68365;SDS011;55283;51.466;5.478;2023-02-15T01:21:14;31.07;;;25.37;;
68365;SDS011;55283;51.466;5.478;2023-02-15T01:23:42;31.20;;;25.10;;
68365;SDS011;55283;51.466;5.478;2023-02-15T01:26:08;30.02;;;23.77;;
68365;SDS011;55283;51.466;5.478;2023-02-15T01:28:34;30.77;;;24.27;;
68365;SDS011;55283;51.466;5.478;2023-02-15T01:31:04;30.17;;;24.52;;
68365;SDS011;55283;51.466;5.478;2023-02-15T01:33:33;29.93;;;24.47;;
68365;SDS011;55283;51.466;5.478;2023-02-15T01:35:59;30.10;;;23.38;;
68365;SDS011;55283;51.466;5.478;2023-02-15T01:38:25;28.13;;;23.67;;
68365;SDS011;55283;51.466;5.478;2023-02-15T01:40:54;28.98;;;23.60;;
68365;SDS011;55283;51.466;5.478;2023-02-15T01:43:43;29.20;;;23.60;;
68365;SDS011;55283;51.466;5.478;2023-02-15T01:46:11;27.48;;;22.35;;
68365;SDS011;55283;51.466;5.478;2023-02-15T01:48:40;27.65;;;22.67;;
68365;SDS011;55283;51.466;5.478;2023-02-15T01:51:10;29.20;;;22.97;;
68365;SDS011;55283;51.466;5.478;2023-02-15T01:53:44;28.00;;;22.65;;
68365;SDS011;55283;51.466;5.478;2023-02-15T01:56:17;29.55;;;22.88;;
68365;SDS011;55283;51.466;5.478;2023-02-15T01:58:46;26.98;;;22.02;;
68365;SDS011;55283;51.466;5.478;2023-02-15T02:01:14;27.27;;;22.10;;
68365;SDS011;55283;51.466;5.478;2023-02-15T02:06:09;27.95;;;22.67;;
68365;SDS011;55283;51.466;5.478;2023-02-15T02:08:35;26.10;;;21.90;;
68365;SDS011;55283;51.466;5.478;2023-02-15T02:11:01;28.83;;;22.92;;
68365;SDS011;55283;51.466;5.478;2023-02-15T02:13:26;27.87;;;22.03;;
68365;SDS011;55283;51.466;5.478;2023-02-15T02:15:54;26.63;;;20.92;;
68365;SDS011;55283;51.466;5.478;2023-02-15T02:18:34;26.67;;;22.00;;
68365;SDS011;55283;51.466;5.478;2023-02-15T02:21:24;26.20;;;21.80;;
68365;SDS011;55283;51.466;5.478;2023-02-15T02:24:15;26.60;;;21.33;;
68365;SDS011;55283;51.466;5.478;2023-02-15T02:27:01;28.35;;;22.13;;
68365;SDS011;55283;51.466;5.478;2023-02-15T02:41:20;24.67;;;20.55;;
68365;SDS011;55283;51.466;5.478;2023-02-15T02:46:32;25.53;;;20.63;;
68365;SDS011;55283;51.466;5.478;2023-02-15T02:49:02;26.42;;;20.15;;
68365;SDS011;55283;51.466;5.478;2023-02-15T02:51:27;23.17;;;19.33;;
68365;SDS011;55283;51.466;5.478;2023-02-15T02:53:54;23.77;;;20.43;;
68365;SDS011;55283;51.466;5.478;2023-02-15T02:56:27;24.92;;;19.80;;
68365;SDS011;55283;51.466;5.478;2023-02-15T02:58:58;24.17;;;19.83;;
68365;SDS011;55283;51.466;5.478;2023-02-15T03:01:48;22.45;;;19.70;;
68365;SDS011;55283;51.466;5.478;2023-02-15T03:04:17;23.27;;;19.73;;
68365;SDS011;55283;51.466;5.478;2023-02-15T03:06:50;21.93;;;19.37;;
68365;SDS011;55283;51.466;5.478;2023-02-15T03:11:48;24.33;;;19.77;;
68365;SDS011;55283;51.466;5.478;2023-02-15T03:14:15;22.73;;;19.02;;
68365;SDS011;55283;51.466;5.478;2023-02-15T03:16:43;22.33;;;18.57;;
68365;SDS011;55283;51.466;5.478;2023-02-15T03:19:13;23.70;;;19.92;;
68365;SDS011;55283;51.466;5.478;2023-02-15T03:21:44;23.27;;;18.95;;
68365;SDS011;55283;51.466;5.478;2023-02-15T03:24:28;22.87;;;18.73;;
68365;SDS011;55283;51.466;5.478;2023-02-15T03:27:02;23.17;;;18.48;;
68365;SDS011;55283;51.466;5.478;2023-02-15T03:29:31;22.83;;;18.60;;
68365;SDS011;55283;51.466;5.478;2023-02-15T03:31:59;23.40;;;18.63;;
68365;SDS011;55283;51.466;5.478;2023-02-15T03:34:27;21.83;;;18.10;;
68365;SDS011;55283;51.466;5.478;2023-02-15T03:39:35;22.08;;;18.13;;
68365;SDS011;55283;51.466;5.478;2023-02-15T03:45:11;22.30;;;18.02;;
68365;SDS011;55283;51.466;5.478;2023-02-15T03:47:44;21.83;;;18.25;;
68365;SDS011;55283;51.466;5.478;2023-02-15T03:50:15;20.67;;;17.00;;
68365;SDS011;55283;51.466;5.478;2023-02-15T03:53:02;21.70;;;17.83;;
68365;SDS011;55283;51.466;5.478;2023-02-15T03:55:31;19.73;;;17.50;;
68365;SDS011;55283;51.466;5.478;2023-02-15T03:57:58;21.87;;;17.80;;
68365;SDS011;55283;51.466;5.478;2023-02-15T04:00:44;21.48;;;16.70;;
68365;SDS011;55283;51.466;5.478;2023-02-15T04:03:37;21.70;;;17.48;;
68365;SDS011;55283;51.466;5.478;2023-02-15T04:06:05;21.02;;;17.35;;
68365;SDS011;55283;51.466;5.478;2023-02-15T04:08:31;21.27;;;17.60;;
68365;SDS011;55283;51.466;5.478;2023-02-15T04:11:19;21.05;;;17.30;;
68365;SDS011;55283;51.466;5.478;2023-02-15T04:13:44;20.60;;;17.23;;
68365;SDS011;55283;51.466;5.478;2023-02-15T04:16:10;20.10;;;16.77;;
68365;SDS011;55283;51.466;5.478;2023-02-15T04:18:36;18.47;;;16.43;;
68365;SDS011;55283;51.466;5.478;2023-02-15T04:21:22;20.40;;;16.67;;
68365;SDS011;55283;51.466;5.478;2023-02-15T04:24:08;19.25;;;16.58;;
68365;SDS011;55283;51.466;5.478;2023-02-15T04:26:52;19.50;;;16.50;;
68365;SDS011;55283;51.466;5.478;2023-02-15T04:29:18;19.70;;;16.73;;
68365;SDS011;55283;51.466;5.478;2023-02-15T04:31:45;20.37;;;16.57;;
68365;SDS011;55283;51.466;5.478;2023-02-15T04:34:11;21.02;;;16.58;;
68365;SDS011;55283;51.466;5.478;2023-02-15T04:36:37;17.50;;;15.23;;
68365;SDS011;55283;51.466;5.478;2023-02-15T04:39:03;20.35;;;16.45;;
68365;SDS011;55283;51.466;5.478;2023-02-15T04:41:28;20.77;;;17.00;;
68365;SDS011;55283;51.466;5.478;2023-02-15T04:43:54;20.20;;;15.60;;
68365;SDS011;55283;51.466;5.478;2023-02-15T04:46:19;18.17;;;15.80;;
68365;SDS011;55283;51.466;5.478;2023-02-15T04:48:45;18.50;;;15.43;;
68365;SDS011;55283;51.466;5.478;2023-02-15T04:51:10;18.50;;;15.90;;
68365;SDS011;55283;51.466;5.478;2023-02-15T04:53:36;18.55;;;15.32;;
68365;SDS011;55283;51.466;5.478;2023-02-15T04:56:01;18.90;;;15.73;;
68365;SDS011;55283;51.466;5.478;2023-02-15T04:58:27;19.10;;;16.27;;
68365;SDS011;55283;51.466;5.478;2023-02-15T05:00:55;18.65;;;15.32;;
68365;SDS011;55283;51.466;5.478;2023-02-15T05:03:21;17.03;;;15.10;;
68365;SDS011;55283;51.466;5.478;2023-02-15T05:05:47;18.55;;;15.98;;
68365;SDS011;55283;51.466;5.478;2023-02-15T05:08:12;20.23;;;16.50;;
68365;SDS011;55283;51.466;5.478;2023-02-15T05:10:38;17.83;;;15.17;;
68365;SDS011;55283;51.466;5.478;2023-02-15T05:13:03;18.67;;;15.47;;
68365;SDS011;55283;51.466;5.478;2023-02-15T05:15:29;18.10;;;15.05;;
68365;SDS011;55283;51.466;5.478;2023-02-15T05:17:54;17.73;;;14.47;;
68365;SDS011;55283;51.466;5.478;2023-02-15T05:20:19;17.40;;;15.50;;
68365;SDS011;55283;51.466;5.478;2023-02-15T05:22:45;18.07;;;15.03;;
68365;SDS011;55283;51.466;5.478;2023-02-15T05:25:10;17.33;;;15.17;;
68365;SDS011;55283;51.466;5.478;2023-02-15T05:27:54;17.35;;;14.90;;
68365;SDS011;55283;51.466;5.478;2023-02-15T05:30:38;17.20;;;14.90;;
68365;SDS011;55283;51.466;5.478;2023-02-15T05:33:05;18.10;;;14.90;;
68365;SDS011;55283;51.466;5.478;2023-02-15T05:35:31;17.88;;;14.90;;
68365;SDS011;55283;51.466;5.478;2023-02-15T05:37:57;17.08;;;14.65;;
68365;SDS011;55283;51.466;5.478;2023-02-15T05:40:22;16.23;;;14.50;;
68365;SDS011;55283;51.466;5.478;2023-02-15T05:42:48;18.08;;;15.13;;
68365;SDS011;55283;51.466;5.478;2023-02-15T05:45:14;17.70;;;14.73;;
68365;SDS011;55283;51.466;5.478;2023-02-15T05:47:40;17.10;;;14.32;;
68365;SDS011;55283;51.466;5.478;2023-02-15T05:50:06;15.87;;;14.10;;
68365;SDS011;55283;51.466;5.478;2023-02-15T05:52:32;15.77;;;14.05;;
68365;SDS011;55283;51.466;5.478;2023-02-15T05:54:58;15.75;;;13.75;;
68365;SDS011;55283;51.466;5.478;2023-02-15T05:57:25;16.47;;;14.13;;
68365;SDS011;55283;51.466;5.478;2023-02-15T05:59:50;16.17;;;14.48;;
68365;SDS011;55283;51.466;5.478;2023-02-15T06:02:16;16.70;;;14.10;;
68365;SDS011;55283;51.466;5.478;2023-02-15T06:04:41;15.40;;;13.50;;
68365;SDS011;55283;51.466;5.478;2023-02-15T06:07:07;16.17;;;13.47;;
68365;SDS011;55283;51.466;5.478;2023-02-15T06:09:32;15.50;;;13.35;;
68365;SDS011;55283;51.466;5.478;2023-02-15T06:11:57;15.00;;;13.20;;
68365;SDS011;55283;51.466;5.478;2023-02-15T06:14:23;15.50;;;13.23;;
68365;SDS011;55283;51.466;5.478;2023-02-15T06:16:48;15.47;;;13.40;;
68365;SDS011;55283;51.466;5.478;2023-02-15T06:19:14;15.57;;;13.97;;
68365;SDS011;55283;51.466;5.478;2023-02-15T06:21:39;15.60;;;13.90;;
68365;SDS011;55283;51.466;5.478;2023-02-15T06:24:04;15.37;;;13.07;;
68365;SDS011;55283;51.466;5.478;2023-02-15T06:26:30;15.57;;;12.93;;
68365;SDS011;55283;51.466;5.478;2023-02-15T06:28:55;15.97;;;13.20;;
68365;SDS011;55283;51.466;5.478;2023-02-15T06:31:21;15.47;;;13.73;;
68365;SDS011;55283;51.466;5.478;2023-02-15T06:33:46;14.40;;;12.90;;
68365;SDS011;55283;51.466;5.478;2023-02-15T06:36:11;13.67;;;12.20;;
68365;SDS011;55283;51.466;5.478;2023-02-15T06:38:37;14.80;;;12.47;;
68365;SDS011;55283;51.466;5.478;2023-02-15T06:41:03;17.37;;;12.33;;
68365;SDS011;55283;51.466;5.478;2023-02-15T06:43:28;14.63;;;12.17;;
68365;SDS011;55283;51.466;5.478;2023-02-15T06:45:54;14.05;;;12.15;;
68365;SDS011;55283;51.466;5.478;2023-02-15T06:48:19;14.97;;;12.50;;
68365;SDS011;55283;51.466;5.478;2023-02-15T06:50:44;13.17;;;11.53;;
68365;SDS011;55283;51.466;5.478;2023-02-15T06:53:10;14.50;;;12.00;;
68365;SDS011;55283;51.466;5.478;2023-02-15T06:55:35;15.43;;;11.82;;
68365;SDS011;55283;51.466;5.478;2023-02-15T06:58:01;15.33;;;12.03;;
68365;SDS011;55283;51.466;5.478;2023-02-15T07:00:26;13.63;;;11.50;;
68365;SDS011;55283;51.466;5.478;2023-02-15T07:02:55;17.07;;;10.87;;
68365;SDS011;55283;51.466;5.478;2023-02-15T07:05:22;14.60;;;11.43;;
68365;SDS011;55283;51.466;5.478;2023-02-15T07:07:48;13.73;;;11.20;;
68365;SDS011;55283;51.466;5.478;2023-02-15T07:10:14;28.42;;;11.52;;
68365;SDS011;55283;51.466;5.478;2023-02-15T07:12:40;12.60;;;11.10;;
68365;SDS011;55283;51.466;5.478;2023-02-15T07:15:10;20.25;;;13.40;;
68365;SDS011;55283;51.466;5.478;2023-02-15T07:17:40;19.90;;;14.50;;
68365;SDS011;55283;51.466;5.478;2023-02-15T07:20:16;18.90;;;13.33;;
68365;SDS011;55283;51.466;5.478;2023-02-15T07:22:44;21.33;;;13.55;;
68365;SDS011;55283;51.466;5.478;2023-02-15T07:25:10;21.55;;;14.77;;
68365;SDS011;55283;51.466;5.478;2023-02-15T07:27:37;21.00;;;14.03;;
68365;SDS011;55283;51.466;5.478;2023-02-15T07:30:03;18.33;;;13.05;;
68365;SDS011;55283;51.466;5.478;2023-02-15T07:32:30;17.88;;;12.88;;
68365;SDS011;55283;51.466;5.478;2023-02-15T07:34:57;17.37;;;12.57;;
68365;SDS011;55283;51.466;5.478;2023-02-15T07:37:23;20.17;;;11.90;;
68365;SDS011;55283;51.466;5.478;2023-02-15T07:39:48;15.90;;;11.50;;
68365;SDS011;55283;51.466;5.478;2023-02-15T07:42:14;17.50;;;11.45;;
68365;SDS011;55283;51.466;5.478;2023-02-15T07:44:39;16.30;;;11.23;;
68365;SDS011;55283;51.466;5.478;2023-02-15T07:47:05;16.13;;;10.83;;
68365;SDS011;55283;51.466;5.478;2023-02-15T07:49:30;16.20;;;10.98;;
68365;SDS011;55283;51.466;5.478;2023-02-15T07:51:56;16.13;;;10.87;;
68365;SDS011;55283;51.466;5.478;2023-02-15T07:54:21;16.17;;;10.50;;
68365;SDS011;55283;51.466;5.478;2023-02-15T07:56:46;15.53;;;10.43;;
68365;SDS011;55283;51.466;5.478;2023-02-15T07:59:12;17.90;;;10.90;;
68365;SDS011;55283;51.466;5.478;2023-02-15T08:01:38;14.67;;;10.00;;
68365;SDS011;55283;51.466;5.478;2023-02-15T08:04:04;13.45;;;9.90;;
68365;SDS011;55283;51.466;5.478;2023-02-15T08:06:32;13.57;;;9.20;;
68365;SDS011;55283;51.466;5.478;2023-02-15T08:09:00;18.17;;;9.90;;
68365;SDS011;55283;51.466;5.478;2023-02-15T08:11:28;13.73;;;9.30;;
68365;SDS011;55283;51.466;5.478;2023-02-15T08:16:32;12.55;;;9.32;;
68365;SDS011;55283;51.466;5.478;2023-02-15T08:18:59;12.73;;;9.70;;
68365;SDS011;55283;51.466;5.478;2023-02-15T08:21:27;14.73;;;9.43;;
68365;SDS011;55283;51.466;5.478;2023-02-15T08:23:53;12.03;;;8.83;;
68365;SDS011;55283;51.466;5.478;2023-02-15T08:26:20;11.25;;;8.70;;
68365;SDS011;55283;51.466;5.478;2023-02-15T08:28:46;11.02;;;8.50;;
68365;SDS011;55283;51.466;5.478;2023-02-15T08:31:12;12.10;;;8.37;;
68365;SDS011;55283;51.466;5.478;2023-02-15T08:33:39;10.80;;;7.97;;
68365;SDS011;55283;51.466;5.478;2023-02-15T08:36:06;11.63;;;8.33;;
68365;SDS011;55283;51.466;5.478;2023-02-15T08:38:33;11.38;;;7.90;;
68365;SDS011;55283;51.466;5.478;2023-02-15T08:43:37;11.02;;;8.18;;
68365;SDS011;55283;51.466;5.478;2023-02-15T08:46:04;11.17;;;7.60;;
68365;SDS011;55283;51.466;5.478;2023-02-15T08:48:30;11.65;;;7.72;;
68365;SDS011;55283;51.466;5.478;2023-02-15T08:50:56;10.70;;;7.70;;
68365;SDS011;55283;51.466;5.478;2023-02-15T08:53:21;9.77;;;7.40;;
68365;SDS011;55283;51.466;5.478;2023-02-15T08:55:47;9.63;;;7.10;;
68365;SDS011;55283;51.466;5.478;2023-02-15T08:58:20;9.53;;;7.20;;
68365;SDS011;55283;51.466;5.478;2023-02-15T09:00:45;9.37;;;7.27;;
68365;SDS011;55283;51.466;5.478;2023-02-15T09:03:10;9.47;;;7.00;;
68365;SDS011;55283;51.466;5.478;2023-02-15T09:05:36;8.97;;;7.20;;
68365;SDS011;55283;51.466;5.478;2023-02-15T09:08:01;8.27;;;6.87;;
68365;SDS011;55283;51.466;5.478;2023-02-15T09:10:27;8.27;;;6.97;;
68365;SDS011;55283;51.466;5.478;2023-02-15T09:12:52;8.73;;;7.03;;
68365;SDS011;55283;51.466;5.478;2023-02-15T09:15:17;9.93;;;7.43;;
68365;SDS011;55283;51.466;5.478;2023-02-15T09:17:43;9.23;;;6.40;;
68365;SDS011;55283;51.466;5.478;2023-02-15T09:20:08;7.57;;;6.67;;
68365;SDS011;55283;51.466;5.478;2023-02-15T09:22:34;8.90;;;6.70;;
68365;SDS011;55283;51.466;5.478;2023-02-15T09:24:59;7.73;;;6.20;;
68365;SDS011;55283;51.466;5.478;2023-02-15T09:27:25;8.17;;;6.50;;
68365;SDS011;55283;51.466;5.478;2023-02-15T09:29:50;11.93;;;7.97;;
68365;SDS011;55283;51.466;5.478;2023-02-15T09:32:15;10.70;;;7.13;;
68365;SDS011;55283;51.466;5.478;2023-02-15T09:34:42;9.25;;;6.85;;
68365;SDS011;55283;51.466;5.478;2023-02-15T09:37:07;8.57;;;6.93;;
68365;SDS011;55283;51.466;5.478;2023-02-15T09:39:33;10.03;;;6.40;;
68365;SDS011;55283;51.466;5.478;2023-02-15T09:53:14;8.77;;;5.90;;
68365;SDS011;55283;51.466;5.478;2023-02-15T10:01:12;7.90;;;6.10;;
68365;SDS011;55283;51.466;5.478;2023-02-15T10:03:44;9.50;;;6.43;;
68365;SDS011;55283;51.466;5.478;2023-02-15T10:15:18;8.68;;;5.95;;
68365;SDS011;55283;51.466;5.478;2023-02-15T10:21:02;8.07;;;6.10;;
68365;SDS011;55283;51.466;5.478;2023-02-15T10:23:46;7.90;;;6.43;;
68365;SDS011;55283;51.466;5.478;2023-02-15T10:26:18;6.95;;;5.90;;
68365;SDS011;55283;51.466;5.478;2023-02-15T10:34:23;9.50;;;6.18;;
68365;SDS011;55283;51.466;5.478;2023-02-15T10:50:48;8.63;;;6.00;;
68365;SDS011;55283;51.466;5.478;2023-02-15T10:53:28;7.38;;;6.00;;
68365;SDS011;55283;51.466;5.478;2023-02-15T10:56:23;7.90;;;5.72;;
68365;SDS011;55283;51.466;5.478;2023-02-15T11:01:25;6.65;;;5.43;;
68365;SDS011;55283;51.466;5.478;2023-02-15T11:06:50;7.07;;;5.32;;
68365;SDS011;55283;51.466;5.478;2023-02-15T11:09:22;7.28;;;5.35;;
68365;SDS011;55283;51.466;5.478;2023-02-15T11:11:52;6.57;;;5.10;;
68365;SDS011;55283;51.466;5.478;2023-02-15T11:17:04;8.20;;;5.72;;
68365;SDS011;55283;51.466;5.478;2023-02-15T11:19:35;10.13;;;5.70;;
68365;SDS011;55283;51.466;5.478;2023-02-15T11:22:06;8.60;;;5.75;;
68365;SDS011;55283;51.466;5.478;2023-02-15T11:24:42;8.70;;;5.55;;
68365;SDS011;55283;51.466;5.478;2023-02-15T11:29:38;7.87;;;5.40;;
68365;SDS011;55283;51.466;5.478;2023-02-15T11:32:26;8.82;;;6.00;;
68365;SDS011;55283;51.466;5.478;2023-02-15T11:34:56;8.82;;;6.00;;
68365;SDS011;55283;51.466;5.478;2023-02-15T11:37:35;9.20;;;5.70;;
68365;SDS011;55283;51.466;5.478;2023-02-15T11:40:14;8.50;;;5.25;;
68365;SDS011;55283;51.466;5.478;2023-02-15T11:42:44;7.90;;;5.80;;
68365;SDS011;55283;51.466;5.478;2023-02-15T11:47:57;8.10;;;5.93;;
68365;SDS011;55283;51.466;5.478;2023-02-15T11:50:25;7.18;;;5.57;;
68365;SDS011;55283;51.466;5.478;2023-02-15T11:52:57;9.77;;;5.15;;
68365;SDS011;55283;51.466;5.478;2023-02-15T11:55:26;10.03;;;5.97;;
68365;SDS011;55283;51.466;5.478;2023-02-15T11:58:37;7.90;;;5.13;;
68365;SDS011;55283;51.466;5.478;2023-02-15T12:01:00;7.13;;;5.60;;
68365;SDS011;55283;51.466;5.478;2023-02-15T12:06:24;8.10;;;5.70;;
68365;SDS011;55283;51.466;5.478;2023-02-15T12:11:42;7.77;;;5.50;;
68365;SDS011;55283;51.466;5.478;2023-02-15T12:14:08;6.00;;;5.13;;
68365;SDS011;55283;51.466;5.478;2023-02-15T12:16:46;6.27;;;4.90;;
68365;SDS011;55283;51.466;5.478;2023-02-15T12:19:28;8.15;;;5.25;;
68365;SDS011;55283;51.466;5.478;2023-02-15T12:21:54;6.88;;;5.10;;
68365;SDS011;55283;51.466;5.478;2023-02-15T12:24:29;7.03;;;5.27;;
68365;SDS011;55283;51.466;5.478;2023-02-15T12:29:30;7.87;;;5.13;;
68365;SDS011;55283;51.466;5.478;2023-02-15T12:32:00;8.43;;;5.00;;
68365;SDS011;55283;51.466;5.478;2023-02-15T12:34:28;6.90;;;5.40;;
68365;SDS011;55283;51.466;5.478;2023-02-15T12:36:57;6.80;;;5.28;;
68365;SDS011;55283;51.466;5.478;2023-02-15T12:39:28;6.27;;;5.20;;
68365;SDS011;55283;51.466;5.478;2023-02-15T12:44:28;7.03;;;5.10;;
68365;SDS011;55283;51.466;5.478;2023-02-15T12:47:03;7.28;;;5.30;;
68365;SDS011;55283;51.466;5.478;2023-02-15T12:52:48;7.80;;;5.30;;
68365;SDS011;55283;51.466;5.478;2023-02-15T12:55:23;6.47;;;4.85;;
68365;SDS011;55283;51.466;5.478;2023-02-15T12:58:07;5.80;;;4.90;;
68365;SDS011;55283;51.466;5.478;2023-02-15T13:00:39;6.22;;;5.32;;
68365;SDS011;55283;51.466;5.478;2023-02-15T13:03:04;5.77;;;5.10;;
68365;SDS011;55283;51.466;5.478;2023-02-15T13:08:16;6.93;;;5.15;;
68365;SDS011;55283;51.466;5.478;2023-02-15T13:10:54;8.57;;;5.30;;
68365;SDS011;55283;51.466;5.478;2023-02-15T13:13:30;5.80;;;4.90;;
68365;SDS011;55283;51.466;5.478;2023-02-15T13:16:06;6.53;;;4.70;;
68365;SDS011;55283;51.466;5.478;2023-02-15T13:18:45;6.80;;;4.85;;
68365;SDS011;55283;51.466;5.478;2023-02-15T13:21:16;5.93;;;5.20;;
68365;SDS011;55283;51.466;5.478;2023-02-15T13:23:47;7.07;;;5.10;;
68365;SDS011;55283;51.466;5.478;2023-02-15T13:26:18;5.93;;;4.95;;
68365;SDS011;55283;51.466;5.478;2023-02-15T13:28:47;6.38;;;5.22;;
68365;SDS011;55283;51.466;5.478;2023-02-15T13:31:20;6.17;;;4.77;;
68365;SDS011;55283;51.466;5.478;2023-02-15T13:33:49;9.05;;;5.30;;
68365;SDS011;55283;51.466;5.478;2023-02-15T13:36:27;7.00;;;5.53;;
68365;SDS011;55283;51.466;5.478;2023-02-15T13:39:01;8.40;;;5.23;;
68365;SDS011;55283;51.466;5.478;2023-02-15T13:52:58;6.43;;;4.97;;
68365;SDS011;55283;51.466;5.478;2023-02-15T14:15:02;5.82;;;4.90;;
68365;SDS011;55283;51.466;5.478;2023-02-15T14:26:06;5.65;;;4.45;;
68365;SDS011;55283;51.466;5.478;2023-02-15T14:28:42;6.77;;;4.47;;
68365;SDS011;55283;51.466;5.478;2023-02-15T14:31:25;7.82;;;5.10;;
68365;SDS011;55283;51.466;5.478;2023-02-15T14:33:59;5.22;;;4.38;;
68365;SDS011;55283;51.466;5.478;2023-02-15T14:36:25;5.40;;;4.40;;
68365;SDS011;55283;51.466;5.478;2023-02-15T14:42:12;7.20;;;4.63;;
68365;SDS011;55283;51.466;5.478;2023-02-15T14:44:48;7.70;;;5.28;;
68365;SDS011;55283;51.466;5.478;2023-02-15T14:47:25;7.10;;;4.45;;
68365;SDS011;55283;51.466;5.478;2023-02-15T14:49:57;5.77;;;4.70;;
68365;SDS011;55283;51.466;5.478;2023-02-15T14:52:23;5.75;;;4.43;;
68365;SDS011;55283;51.466;5.478;2023-02-15T14:59:43;6.53;;;4.57;;
68365;SDS011;55283;51.466;5.478;2023-02-15T15:08:02;5.55;;;4.57;;
68365;SDS011;55283;51.466;5.478;2023-02-15T15:10:34;4.80;;;4.25;;
68365;SDS011;55283;51.466;5.478;2023-02-15T15:13:34;10.95;;;5.93;;
68365;SDS011;55283;51.466;5.478;2023-02-15T15:15:56;6.47;;;4.77;;
68365;SDS011;55283;51.466;5.478;2023-02-15T15:21:09;7.35;;;4.93;;
68365;SDS011;55283;51.466;5.478;2023-02-15T15:23:39;8.13;;;4.87;;
68365;SDS011;55283;51.466;5.478;2023-02-15T15:26:23;7.25;;;4.85;;
68365;SDS011;55283;51.466;5.478;2023-02-15T15:39:48;5.83;;;4.80;;
68365;SDS011;55283;51.466;5.478;2023-02-15T15:48:32;5.97;;;4.70;;
68365;SDS011;55283;51.466;5.478;2023-02-15T15:51:12;6.60;;;4.70;;
68365;SDS011;55283;51.466;5.478;2023-02-15T15:53:44;6.40;;;4.85;;
68365;SDS011;55283;51.466;5.478;2023-02-15T15:56:15;5.18;;;4.43;;
68365;SDS011;55283;51.466;5.478;2023-02-15T15:58:50;6.60;;;4.83;;
68365;SDS011;55283;51.466;5.478;2023-02-15T16:01:24;7.05;;;4.43;;
68365;SDS011;55283;51.466;5.478;2023-02-15T16:03:52;6.57;;;4.68;;
68365;SDS011;55283;51.466;5.478;2023-02-15T16:06:33;7.67;;;4.73;;
68365;SDS011;55283;51.466;5.478;2023-02-15T16:11:57;5.07;;;4.35;;
68365;SDS011;55283;51.466;5.478;2023-02-15T16:14:35;4.75;;;4.07;;
68365;SDS011;55283;51.466;5.478;2023-02-15T16:17:03;5.80;;;4.00;;
68365;SDS011;55283;51.466;5.478;2023-02-15T16:19:32;5.05;;;4.25;;
68365;SDS011;55283;51.466;5.478;2023-02-15T16:22:00;6.35;;;4.28;;
68365;SDS011;55283;51.466;5.478;2023-02-15T16:24:34;5.80;;;4.70;;
68365;SDS011;55283;51.466;5.478;2023-02-15T16:29:40;4.53;;;3.90;;
68365;SDS011;55283;51.466;5.478;2023-02-15T16:32:14;6.83;;;4.50;;
68365;SDS011;55283;51.466;5.478;2023-02-15T16:34:59;6.72;;;4.50;;
68365;SDS011;55283;51.466;5.478;2023-02-15T16:37:26;6.70;;;4.77;;
68365;SDS011;55283;51.466;5.478;2023-02-15T16:39:56;8.75;;;4.70;;
68365;SDS011;55283;51.466;5.478;2023-02-15T16:42:21;6.93;;;4.43;;
68365;SDS011;55283;51.466;5.478;2023-02-15T16:44:49;7.18;;;4.53;;
68365;SDS011;55283;51.466;5.478;2023-02-15T16:47:27;6.25;;;4.20;;
68365;SDS011;55283;51.466;5.478;2023-02-15T16:49:55;6.90;;;4.40;;
68365;SDS011;55283;51.466;5.478;2023-02-15T16:52:26;6.00;;;4.20;;
68365;SDS011;55283;51.466;5.478;2023-02-15T16:54:57;6.85;;;4.30;;
68365;SDS011;55283;51.466;5.478;2023-02-15T16:57:28;5.97;;;4.60;;
68365;SDS011;55283;51.466;5.478;2023-02-15T17:00:17;5.35;;;4.13;;
68365;SDS011;55283;51.466;5.478;2023-02-15T17:03:22;6.68;;;4.13;;
68365;SDS011;55283;51.466;5.478;2023-02-15T17:08:15;7.73;;;4.33;;
68365;SDS011;55283;51.466;5.478;2023-02-15T17:10:41;5.10;;;4.20;;
68365;SDS011;55283;51.466;5.478;2023-02-15T17:13:28;5.97;;;4.30;;
68365;SDS011;55283;51.466;5.478;2023-02-15T17:18:23;6.00;;;4.47;;
68365;SDS011;55283;51.466;5.478;2023-02-15T17:20:50;5.87;;;4.27;;
68365;SDS011;55283;51.466;5.478;2023-02-15T17:23:30;5.40;;;4.40;;
68365;SDS011;55283;51.466;5.478;2023-02-15T17:25:58;4.90;;;4.00;;
68365;SDS011;55283;51.466;5.478;2023-02-15T17:28:26;5.83;;;4.13;;
68365;SDS011;55283;51.466;5.478;2023-02-15T17:30:54;5.50;;;4.10;;
68365;SDS011;55283;51.466;5.478;2023-02-15T17:33:23;4.80;;;3.90;;
68365;SDS011;55283;51.466;5.478;2023-02-15T17:41:22;5.43;;;3.90;;
68365;SDS011;55283;51.466;5.478;2023-02-15T17:43:47;6.18;;;4.15;;
68365;SDS011;55283;51.466;5.478;2023-02-15T17:46:13;5.27;;;4.43;;
68365;SDS011;55283;51.466;5.478;2023-02-15T17:48:41;4.53;;;3.97;;
68365;SDS011;55283;51.466;5.478;2023-02-15T17:51:07;6.13;;;4.03;;
68365;SDS011;55283;51.466;5.478;2023-02-15T17:53:37;6.05;;;4.38;;
68365;SDS011;55283;51.466;5.478;2023-02-15T17:56:03;5.40;;;4.20;;
68365;SDS011;55283;51.466;5.478;2023-02-15T17:58:34;6.20;;;4.30;;
68365;SDS011;55283;51.466;5.478;2023-02-15T18:01:04;5.45;;;4.20;;
68365;SDS011;55283;51.466;5.478;2023-02-15T18:03:51;4.37;;;3.93;;
68365;SDS011;55283;51.466;5.478;2023-02-15T18:06:37;4.95;;;3.83;;